Time;durP1;ratioP1;P1;durP2;ratioP2;P2;SDS_P1;SDS_P2;PMS_P1;PMS_P2;Temp;Humidity;BMP_temperature;BMP_pressure;BME280_temperature;BME280_humidity;BME280_pressure;Samples;Min_cycle;Max_cycle;Signal;HPM_P1;HPM_P2
2023/01/06 00:00:44;;;;;;;2.05;0.20;;;;;;;;;;5035148;28;20029;-84
2023/01/06 00:03:10;;;;;;;1.65;0.20;;;;;;;;;;5034710;28;20033;-85
2023/01/06 00:05:36;;;;;;;6.53;0.32;;;;;;;;;;5034707;28;20029;-87
2023/01/06 00:08:01;;;;;;;3.17;0.20;;;10.70;99.90;;;;;;5034909;28;20513;-88
2023/01/06 00:10:27;;;;;;;5.43;0.20;;;10.70;99.90;;;;;;5036827;28;20375;-85
2023/01/06 00:12:53;;;;;;;1.17;0.10;;;13.80;99.90;;;;;;5036533;28;20021;-86
2023/01/06 00:15:19;;;;;;;4.90;0.10;;;10.70;99.90;;;;;;5034591;28;20052;-87
2023/01/06 00:17:45;;;;;;;4.05;0.10;;;10.70;99.90;;;;;;5035048;28;20367;-86
2023/01/06 00:20:12;;;;;;;3.03;0.00;;;12.80;99.90;;;;;;5034886;28;20026;-87
2023/01/06 00:22:41;;;;;;;0.82;0.00;;;10.70;99.90;;;;;;5035702;28;20021;-89
2023/01/06 00:25:09;;;;;;;1.27;0.10;;;10.70;99.90;;;;;;5035272;28;20119;-86
2023/01/06 00:27:38;;;;;;;3.58;0.10;;;10.70;99.90;;;;;;5036507;28;20021;-87
2023/01/06 00:30:04;;;;;;;;;;;11.80;99.90;;;;;;5035378;28;20493;-89
2023/01/06 00:32:30;;;;;;;2.08;0.20;;;10.60;99.90;;;;;;5035973;28;19927;-89
2023/01/06 00:34:56;;;;;;;2.47;0.35;;;10.60;99.90;;;;;;5035330;28;20487;-89
2023/01/06 00:37:21;;;;;;;1.75;0.15;;;10.60;99.90;;;;;;5035780;28;20025;-85
2023/01/06 00:39:50;;;;;;;3.33;0.20;;;11.00;99.90;;;;;;5035587;28;20030;-86
2023/01/06 00:42:16;;;;;;;1.38;0.10;;;;;;;;;;5038017;28;20030;-89
2023/01/06 00:44:41;;;;;;;5.50;0.35;;;10.60;99.90;;;;;;5038827;28;20045;-87
2023/01/06 00:47:09;;;;;;;3.00;0.40;;;10.50;99.90;;;;;;5039796;28;20048;-89
2023/01/06 00:49:35;;;;;;;4.25;0.50;;;10.60;99.90;;;;;;5038036;28;20025;-86
2023/01/06 00:52:02;;;;;;;1.85;0.70;;;;;;;;;;5035265;28;20076;-87
2023/01/06 00:54:28;;;;;;;1.52;0.70;;;;;;;;;;5035174;28;20029;-86
2023/01/06 00:56:54;;;;;;;3.42;0.88;;;10.70;99.90;;;;;;5034897;28;20124;-87
2023/01/06 00:59:22;;;;;;;9.32;0.68;;;10.70;99.90;;;;;;5035218;28;20048;-86
2023/01/06 01:01:52;;;;;;;4.75;0.85;;;10.60;99.90;;;;;;5035544;28;20033;-85
2023/01/06 01:04:22;;;;;;;2.95;0.70;;;10.60;99.90;;;;;;5035691;28;20032;-86
2023/01/06 01:06:49;;;;;;;3.90;1.10;;;10.60;99.90;;;;;;5034593;28;20488;-87
2023/01/06 01:09:24;;;;;;;2.10;0.40;;;10.60;99.90;;;;;;5034116;28;20048;-86
2023/01/06 01:12:08;;;;;;;2.60;0.60;;;10.50;99.90;;;;;;5034815;28;20056;-87
2023/01/06 01:14:35;;;;;;;4.70;1.45;;;10.60;99.90;;;;;;5034365;28;20056;-86
2023/01/06 01:17:01;;;;;;;3.53;0.85;;;10.60;99.90;;;;;;5033956;28;20036;-87
2023/01/06 01:19:27;;;;;;;1.85;0.38;;;;;;;;;;5035258;28;20017;-88
2023/01/06 01:21:56;;;;;;;0.98;0.30;;;10.60;99.90;;;;;;5033276;28;20124;-86
2023/01/06 01:24:22;;;;;;;2.50;0.55;;;10.60;99.90;;;;;;5035224;28;20021;-88
2023/01/06 01:26:48;;;;;;;3.17;0.55;;;10.60;99.90;;;;;;5034000;28;20021;-86
2023/01/06 01:29:17;;;;;;;6.18;0.20;;;13.20;99.90;;;;;;5034744;28;20064;-86
2023/01/06 01:31:44;;;;;;;4.50;0.40;;;10.70;99.90;;;;;;5034055;28;20099;-86
2023/01/06 01:34:11;;;;;;;3.22;0.35;;;10.70;99.90;;;;;;5035702;28;20014;-87
2023/01/06 01:36:37;;;;;;;4.57;1.30;;;;;;;;;;5034060;28;20187;-86
2023/01/06 01:39:03;;;;;;;1.85;0.10;;;;;;;;;;5033578;28;20029;-87
2023/01/06 01:41:29;;;;;;;1.65;0.50;;;10.70;99.90;;;;;;5033482;28;20032;-85
2023/01/06 01:44:00;;;;;;;5.05;1.02;;;10.70;99.90;;;;;;5033961;28;20112;-87
2023/01/06 01:46:39;;;;;;;3.30;0.65;;;10.70;99.90;;;;;;5034127;28;20368;-85
2023/01/06 01:49:18;;;;;;;3.22;0.50;;;10.70;99.90;;;;;;5034350;28;20021;-88
2023/01/06 01:51:46;;;;;;;6.82;0.52;;;10.70;99.90;;;;;;5033737;28;20105;-87
2023/01/06 01:54:18;;;;;;;4.50;0.65;;;10.70;99.90;;;;;;5034102;28;20037;-87
2023/01/06 01:56:48;;;;;;;5.53;0.45;;;12.60;99.90;;;;;;5033464;28;20025;-86
2023/01/06 01:59:18;;;;;;;4.13;0.20;;;10.80;99.90;;;;;;5034205;28;20022;-88
2023/01/06 02:01:45;;;;;;;3.45;0.15;;;12.90;99.90;;;;;;5034072;28;20105;-86
2023/01/06 02:04:10;;;;;;;6.18;0.75;;;10.70;99.90;;;;;;5034684;28;20038;-85
2023/01/06 02:06:38;;;;;;;1.02;0.17;;;10.80;99.90;;;;;;5033570;28;20029;-86
2023/01/06 02:09:33;;;;;;;2.45;0.20;;;10.70;99.90;;;;;;5034664;28;20029;-86
2023/01/06 02:11:59;;;;;;;4.28;0.20;;;10.70;99.90;;;;;;4993198;28;20090;-86
2023/01/06 02:14:27;;;;;;;4.93;0.43;;;10.70;99.90;;;;;;5034120;28;20029;-87
2023/01/06 02:17:12;;;;;;;3.47;0.30;;;10.70;99.90;;;;;;5034607;28;20075;-88
2023/01/06 02:20:00;;;;;;;1.55;0.30;;;10.70;99.90;;;;;;5043932;28;20036;-87
2023/01/06 02:22:29;;;;;;;;;;;10.60;99.90;;;;;;5039942;28;20038;-87
2023/01/06 02:25:00;;;;;;;1.92;0.03;;;10.70;99.90;;;;;;5036119;28;19905;-87
2023/01/06 02:27:55;;;;;;;2.25;0.17;;;10.70;99.90;;;;;;5034693;28;20056;-86
2023/01/06 02:30:40;;;;;;;2.28;0.45;;;10.70;99.90;;;;;;5035333;28;20112;-87
2023/01/06 02:33:21;;;;;;;1.98;0.63;;;10.70;99.90;;;;;;5039401;28;20096;-87
2023/01/06 02:36:06;;;;;;;0.55;0.20;;;10.70;99.90;;;;;;5038269;28;20025;-87
2023/01/06 02:38:50;;;;;;;4.28;0.57;;;10.70;99.90;;;;;;5036987;28;20029;-88
2023/01/06 02:41:22;;;;;;;2.05;0.10;;;10.70;99.90;;;;;;5038490;28;20056;-87
2023/01/06 02:43:51;;;;;;;2.80;0.43;;;;;;;;;;5037069;28;20545;-86
2023/01/06 02:46:26;;;;;;;0.52;0.10;;;10.70;99.90;;;;;;5037481;28;20122;-87
2023/01/06 02:49:21;;;;;;;1.38;0.63;;;10.70;99.90;;;;;;5037334;28;20018;-88
2023/01/06 02:51:59;;;;;;;1.67;0.32;;;;;;;;;;4991830;28;20037;-88
2023/01/06 02:54:25;;;;;;;1.88;0.32;;;;;;;;;;5038542;28;20025;-86
2023/01/06 02:57:05;;;;;;;1.38;0.00;;;10.60;99.90;;;;;;5037290;28;20159;-87
2023/01/06 02:59:38;;;;;;;3.70;0.10;;;10.70;99.90;;;;;;5036950;28;20029;-86
2023/01/06 03:02:11;;;;;;;2.15;0.00;;;10.70;99.90;;;;;;5039786;28;20283;-85
2023/01/06 03:04:44;;;;;;;1.40;0.00;;;10.70;99.90;;;;;;5039328;28;20458;-86
2023/01/06 03:07:10;;;;;;;2.60;0.52;;;;;;;;;;5038346;28;20409;-87
2023/01/06 03:09:37;;;;;;;0.20;0.00;;;10.70;99.90;;;;;;5038963;28;20057;-88
2023/01/06 03:12:15;;;;;;;1.50;0.28;;;10.70;99.90;;;;;;5038655;28;20017;-87
2023/01/06 03:14:46;;;;;;;2.95;0.35;;;10.70;99.90;;;;;;5039362;28;20030;-87
2023/01/06 03:17:12;;;;;;;2.00;0.10;;;10.70;99.90;;;;;;5038632;28;20018;-86
2023/01/06 03:19:38;;;;;;;1.17;0.08;;;;;;;;;;5038117;28;20264;-85
2023/01/06 03:22:07;;;;;;;1.65;0.00;;;10.70;99.90;;;;;;5037802;28;20052;-85
2023/01/06 03:24:35;;;;;;;6.00;0.93;;;10.60;99.90;;;;;;5038626;28;20057;-85
2023/01/06 03:27:05;;;;;;;2.77;0.00;;;10.60;99.90;;;;;;5038710;28;20120;-88
2023/01/06 03:29:31;;;;;;;2.17;0.00;;;;;;;;;;5041063;28;20764;-88
2023/01/06 03:32:01;;;;;;;2.78;0.00;;;;;;;;;;5039588;28;20080;-85
2023/01/06 03:34:33;;;;;;;2.45;0.10;;;;;;;;;;5039049;28;20112;-87
2023/01/06 03:37:26;;;;;;;2.10;0.10;;;10.70;99.90;;;;;;5038682;28;20120;-86
2023/01/06 03:39:51;;;;;;;1.00;0.00;;;;;;;;;;5038708;28;20028;-88
2023/01/06 03:45:52;;;;;;;2.75;0.10;;;10.60;99.90;;;;;;5039096;28;20044;-89
2023/01/06 03:48:43;;;;;;;5.20;0.22;;;10.60;99.90;;;;;;5037646;28;20511;-89
2023/01/06 03:51:15;;;;;;;1.65;0.20;;;10.70;99.90;;;;;;5038050;28;20029;-88
2023/01/06 03:53:51;;;;;;;2.22;0.10;;;10.70;99.90;;;;;;5037347;28;20497;-86
2023/01/06 03:56:58;;;;;;;1.63;0.10;;;10.70;99.90;;;;;;5037018;28;20021;-87
2023/01/06 03:59:30;;;;;;;2.20;0.17;;;10.70;99.90;;;;;;5036806;28;20095;-87
2023/01/06 04:01:57;;;;;;;2.13;0.00;;;13.10;99.90;;;;;;5036346;28;20440;-88
2023/01/06 04:04:24;;;;;;;5.88;0.63;;;10.70;99.90;;;;;;5036868;28;20018;-86
2023/01/06 04:06:50;;;;;;;4.40;0.10;;;10.70;99.90;;;;;;5036842;28;20087;-88
2023/01/06 04:09:28;;;;;;;0.45;0.20;;;;;;;;;;5037740;28;20029;-89
2023/01/06 04:14:38;;;;;;;2.47;0.00;;;;;;;;;;5038508;28;20410;-88
2023/01/06 04:17:10;;;;;;;2.75;0.30;;;10.70;99.90;;;;;;5037252;28;20033;-90
2023/01/06 04:19:36;;;;;;;0.20;0.00;;;10.80;99.90;;;;;;5037315;28;20029;-86
2023/01/06 04:22:04;;;;;;;0.98;0.00;;;10.80;99.90;;;;;;5037220;28;20030;-89
2023/01/06 04:24:30;;;;;;;3.47;0.00;;;;;;;;;;5036517;28;20033;-89
2023/01/06 04:26:56;;;;;;;2.83;0.00;;;;;;;;;;5036038;28;20064;-89
2023/01/06 04:29:22;;;;;;;0.63;0.15;;;10.80;99.90;;;;;;5035651;28;20029;-90
2023/01/06 04:31:48;;;;;;;2.47;0.22;;;11.40;99.90;;;;;;5037980;28;20025;-89
2023/01/06 04:34:14;;;;;;;1.20;0.57;;;;;;;;;;5036065;28;20033;-88
2023/01/06 04:36:39;;;;;;;1.83;0.00;;;10.80;99.90;;;;;;5035638;28;20029;-89
2023/01/06 04:39:05;;;;;;;2.47;0.00;;;10.90;99.90;;;;;;5041039;28;20032;-89
2023/01/06 04:41:34;;;;;;;1.75;0.00;;;10.80;99.90;;;;;;5046773;28;20079;-89
2023/01/06 04:43:59;;;;;;;2.85;0.00;;;10.80;99.90;;;;;;5036147;28;20116;-90
2023/01/06 04:46:28;;;;;;;1.38;0.10;;;10.90;99.90;;;;;;5036739;28;20053;-91
2023/01/06 04:48:54;;;;;;;;;;;10.80;99.90;;;;;;5038050;28;20018;-90
2023/01/06 04:51:19;;;;;;;0.10;0.00;;;10.80;99.90;;;;;;5037775;28;19978;-88
2023/01/06 04:53:45;;;;;;;2.38;0.38;;;10.90;99.90;;;;;;5037341;28;20033;-89
2023/01/06 04:56:12;;;;;;;1.88;0.08;;;10.80;99.90;;;;;;5036668;28;20030;-91
2023/01/06 04:58:38;;;;;;;0.43;0.00;;;10.90;99.90;;;;;;5035477;28;20017;-89
2023/01/06 05:01:09;;;;;;;1.55;0.00;;;10.90;99.90;;;;;;5035023;28;20032;-89
2023/01/06 05:03:42;;;;;;;0.60;0.00;;;10.90;99.90;;;;;;5036214;28;20025;-87
2023/01/06 05:06:10;;;;;;;4.35;0.00;;;10.90;99.90;;;;;;5036168;28;20017;-89
2023/01/06 05:08:43;;;;;;;0.20;0.00;;;10.90;99.90;;;;;;5037171;28;20044;-89
2023/01/06 05:11:20;;;;;;;2.65;0.00;;;10.90;99.90;;;;;;5035876;28;20025;-89
2023/01/06 05:13:47;;;;;;;1.75;0.17;;;10.90;99.90;;;;;;5036667;28;20025;-90
2023/01/06 05:16:18;;;;;;;1.65;0.00;;;10.90;99.90;;;;;;5035634;28;20060;-87
2023/01/06 05:18:47;;;;;;;3.05;0.25;;;10.90;99.90;;;;;;5035778;28;20029;-89
2023/01/06 05:21:13;;;;;;;1.23;0.00;;;;;;;;;;5036220;28;20021;-89
2023/01/06 05:23:39;;;;;;;2.10;0.10;;;10.90;99.90;;;;;;5036199;28;20060;-88
2023/01/06 05:26:06;;;;;;;1.02;0.00;;;10.90;99.90;;;;;;5035624;28;20033;-89
2023/01/06 05:28:32;;;;;;;0.47;0.10;;;;;;;;;;5036040;28;20455;-90
2023/01/06 05:31:09;;;;;;;1.35;0.00;;;10.90;99.90;;;;;;5036854;28;20028;-89
2023/01/06 05:33:35;;;;;;;1.55;0.10;;;;;;;;;;5035702;28;20022;-89
2023/01/06 05:36:06;;;;;;;0.85;0.10;;;10.80;99.90;;;;;;5035511;28;20029;-89
2023/01/06 05:41:08;;;;;;;1.48;0.00;;;10.70;99.90;;;;;;5014476;28;20045;-80
2023/01/06 05:43:35;;;;;;;0.98;0.00;;;12.70;99.90;;;;;;5021064;28;20420;-79
2023/01/06 05:46:09;;;;;;;0.28;0.00;;;11.60;99.90;;;;;;5019734;28;20034;-79
2023/01/06 05:48:35;;;;;;;8.95;0.80;;;10.80;99.90;;;;;;5019873;28;20037;-80
2023/01/06 05:51:09;;;;;;;0.73;0.00;;;10.80;99.90;;;;;;5017971;28;20018;-80
2023/01/06 05:53:36;;;;;;;2.22;0.65;;;10.70;99.90;;;;;;5019753;28;20037;-80
2023/01/06 05:56:04;;;;;;;0.63;0.10;;;10.70;99.90;;;;;;5018628;28;20037;-79
2023/01/06 05:58:32;;;;;;;4.15;0.52;;;10.70;99.90;;;;;;5017546;28;20026;-80
2023/01/06 06:00:58;;;;;;;2.17;0.00;;;10.60;99.90;;;;;;5019741;28;20046;-80
2023/01/06 06:03:26;;;;;;;0.60;0.03;;;10.60;99.90;;;;;;5020998;28;20034;-80
2023/01/06 06:05:52;;;;;;;0.57;0.00;;;10.50;99.90;;;;;;5020828;28;20042;-80
2023/01/06 06:08:18;;;;;;;2.22;0.32;;;10.50;99.90;;;;;;5024354;28;20018;-80
2023/01/06 06:10:44;;;;;;;3.30;0.20;;;10.40;99.90;;;;;;5023615;28;20373;-79
2023/01/06 06:13:12;;;;;;;1.63;0.00;;;11.80;99.90;;;;;;5021703;28;20036;-79
2023/01/06 06:15:38;;;;;;;0.40;0.00;;;;;;;;;;5019209;28;20022;-78
2023/01/06 06:18:04;;;;;;;0.77;0.00;;;;;;;;;;5016829;28;20114;-78
2023/01/06 06:20:30;;;;;;;1.00;0.00;;;10.50;99.90;;;;;;5015299;28;20512;-78
2023/01/06 06:22:56;;;;;;;1.90;0.10;;;10.40;99.90;;;;;;5016698;28;20018;-79
2023/01/06 06:25:24;;;;;;;1.13;0.10;;;10.40;99.90;;;;;;5015283;28;20029;-79
2023/01/06 06:27:50;;;;;;;0.40;0.28;;;10.40;99.90;;;;;;5015179;28;20022;-78
2023/01/06 06:30:16;;;;;;;4.55;0.32;;;10.40;99.90;;;;;;5015411;28;20030;-78
2023/01/06 06:32:42;;;;;;;2.00;0.10;;;10.40;99.90;;;;;;5015125;28;20022;-78
2023/01/06 06:35:16;;;;;;;2.67;0.00;;;10.50;99.90;;;;;;5015092;28;20017;-78
2023/01/06 06:37:42;;;;;;;0.28;0.10;;;10.50;99.90;;;;;;5016300;28;20484;-78
2023/01/06 06:40:08;;;;;;;4.70;0.82;;;10.40;99.90;;;;;;5016267;28;20034;-78
2023/01/06 06:42:37;;;;;;;1.15;0.03;;;10.50;99.90;;;;;;5016210;28;20030;-78
2023/01/06 06:45:03;;;;;;;3.92;0.60;;;10.40;99.90;;;;;;5016241;28;20022;-78
2023/01/06 06:47:28;;;;;;;1.65;0.10;;;10.40;99.90;;;;;;5014994;28;20033;-78
2023/01/06 06:49:57;;;;;;;3.33;0.20;;;10.30;99.90;;;;;;5015535;28;20092;-78
2023/01/06 06:52:23;;;;;;;0.25;0.10;;;10.30;99.90;;;;;;5014986;28;20032;-78
2023/01/06 06:54:48;;;;;;;1.55;0.20;;;10.30;99.90;;;;;;5016121;28;20026;-78
2023/01/06 06:57:17;;;;;;;2.05;0.20;;;10.20;99.90;;;;;;5016042;28;20033;-78
2023/01/06 06:59:42;;;;;;;1.27;0.30;;;10.30;99.90;;;;;;5015963;28;20034;-78
2023/01/06 07:02:08;;;;;;;0.47;0.30;;;10.70;99.90;;;;;;5014965;28;20100;-78
2023/01/06 07:04:36;;;;;;;3.05;0.30;;;10.20;99.90;;;;;;5014992;28;20045;-77
2023/01/06 07:07:02;;;;;;;0.65;0.43;;;10.20;99.90;;;;;;5014914;28;20033;-77
2023/01/06 07:09:27;;;;;;;0.73;0.20;;;10.20;99.90;;;;;;5014805;28;20385;-77
2023/01/06 07:11:58;;;;;;;1.00;0.20;;;10.20;99.90;;;;;;5014443;28;20018;-76
2023/01/06 07:14:26;;;;;;;1.88;0.30;;;10.30;99.90;;;;;;5015969;28;20477;-78
2023/01/06 07:16:52;;;;;;;0.80;0.28;;;10.20;99.90;;;;;;5015719;28;20046;-79
2023/01/06 07:19:17;;;;;;;0.52;0.20;;;10.20;99.90;;;;;;5016334;28;20032;-79
2023/01/06 07:21:43;;;;;;;3.83;0.85;;;10.30;99.90;;;;;;5016864;28;20029;-76
2023/01/06 07:24:14;;;;;;;0.73;0.20;;;10.50;99.90;;;;;;5016952;28;20022;-79
2023/01/06 07:26:42;;;;;;;1.25;0.20;;;10.20;99.90;;;;;;5015651;28;20068;-79
2023/01/06 07:29:11;;;;;;;0.80;0.40;;;;;;;;;;5015863;28;20046;-77
2023/01/06 07:31:36;;;;;;;1.00;0.20;;;10.20;99.90;;;;;;5014207;28;20022;-77
2023/01/06 07:34:02;;;;;;;0.32;0.08;;;11.50;99.90;;;;;;5015847;28;20492;-77
2023/01/06 07:36:29;;;;;;;0.52;0.32;;;10.50;99.90;;;;;;5015497;28;20029;-78
2023/01/06 07:38:55;;;;;;;1.00;0.57;;;10.20;99.90;;;;;;5013819;28;20462;-77
2023/01/06 07:41:20;;;;;;;1.75;0.50;;;10.30;99.90;;;;;;5015604;28;20080;-78
2023/01/06 07:43:46;;;;;;;1.05;0.30;;;10.10;99.90;;;;;;5016141;28;20033;-78
2023/01/06 07:46:12;;;;;;;0.88;0.50;;;10.10;99.90;;;;;;5015409;28;20052;-77
2023/01/06 07:48:37;;;;;;;1.75;0.50;;;10.10;99.90;;;;;;5015114;28;20458;-77
2023/01/06 07:51:03;;;;;;;1.42;0.80;;;10.10;99.90;;;;;;5014079;28;20041;-78
2023/01/06 07:53:28;;;;;;;0.77;0.32;;;10.10;99.90;;;;;;5013822;28;20366;-77
2023/01/06 07:55:54;;;;;;;1.38;0.50;;;10.10;99.90;;;;;;5015019;28;20440;-77
2023/01/06 07:58:22;;;;;;;3.65;1.00;;;10.10;99.90;;;;;;5015160;28;20463;-77
2023/01/06 08:00:48;;;;;;;5.72;0.95;;;10.00;99.90;;;;;;5013791;28;20481;-77
2023/01/06 08:03:14;;;;;;;1.88;0.35;;;10.00;99.90;;;;;;5015021;28;20056;-76
2023/01/06 08:05:40;;;;;;;2.20;0.95;;;10.00;99.90;;;;;;5015097;28;20079;-77
2023/01/06 08:08:06;;;;;;;7.18;1.25;;;9.90;99.90;;;;;;5014114;28;20065;-77
2023/01/06 08:10:32;;;;;;;4.38;1.10;;;10.00;99.90;;;;;;5015423;28;20394;-77
2023/01/06 08:12:57;;;;;;;6.00;0.70;;;10.60;99.90;;;;;;5014826;28;20385;-78
2023/01/06 08:15:24;;;;;;;2.08;0.30;;;9.90;99.90;;;;;;5013770;28;20496;-78
2023/01/06 08:17:53;;;;;;;3.35;0.20;;;10.00;99.90;;;;;;5014934;28;20444;-77
2023/01/06 08:20:19;;;;;;;2.20;0.20;;;9.90;99.90;;;;;;5014749;28;20025;-77
2023/01/06 08:22:44;;;;;;;7.30;0.20;;;9.90;99.90;;;;;;5013315;28;20026;-77
2023/01/06 08:25:10;;;;;;;2.80;0.10;;;9.80;99.90;;;;;;5014560;28;20018;-77
2023/01/06 08:27:36;;;;;;;4.72;0.47;;;9.80;99.90;;;;;;5014690;28;20049;-76
2023/01/06 08:30:02;;;;;;;4.55;0.73;;;9.80;99.90;;;;;;5013863;28;20014;-76
2023/01/06 08:32:27;;;;;;;4.45;0.30;;;9.80;99.90;;;;;;5014288;28;20018;-77
2023/01/06 08:34:53;;;;;;;4.18;0.63;;;9.70;99.90;;;;;;5014241;28;20025;-76
2023/01/06 08:37:18;;;;;;;4.63;0.10;;;9.60;99.90;;;;;;5014144;28;20061;-76
2023/01/06 08:39:44;;;;;;;7.75;1.02;;;9.60;99.90;;;;;;5014097;28;20539;-76
2023/01/06 08:42:10;;;;;;;3.08;0.45;;;9.60;99.90;;;;;;5014100;28;20029;-76
2023/01/06 08:44:35;;;;;;;6.57;0.40;;;9.60;99.90;;;;;;5013967;28;20029;-76
2023/01/06 08:47:01;;;;;;;9.70;0.68;;;9.60;99.90;;;;;;5012725;28;20029;-76
2023/01/06 08:49:29;;;;;;;3.38;0.52;;;9.60;99.90;;;;;;5013908;28;20381;-76
2023/01/06 08:51:55;;;;;;;8.32;0.08;;;9.60;99.90;;;;;;5013950;28;20381;-77
2023/01/06 08:54:21;;;;;;;9.30;0.43;;;9.60;99.90;;;;;;5013800;28;20018;-76
2023/01/06 08:56:46;;;;;;;2.20;0.25;;;9.60;99.90;;;;;;5013836;28;20045;-76
2023/01/06 08:59:14;;;;;;;10.98;0.17;;;9.60;99.90;;;;;;5014188;28;20026;-76
2023/01/06 09:01:40;;;;;;;12.50;1.02;;;9.60;99.90;;;;;;5014343;28;20080;-76
2023/01/06 09:04:07;;;;;;;7.88;0.73;;;9.60;99.90;;;;;;5014196;28;20022;-76
2023/01/06 09:06:33;;;;;;;11.73;0.82;;;9.70;99.90;;;;;;5012326;28;20026;-76
2023/01/06 09:09:00;;;;;;;4.93;0.13;;;9.80;99.90;;;;;;5021287;23;20044;-76
2023/01/06 09:11:26;;;;;;;5.93;0.15;;;9.80;99.90;;;;;;5013744;28;20026;-76
2023/01/06 09:13:52;;;;;;;5.35;0.75;;;9.80;99.90;;;;;;5013627;28;20033;-76
2023/01/06 09:16:19;;;;;;;4.85;0.10;;;9.90;99.90;;;;;;5013505;28;20028;-76
2023/01/06 09:18:49;;;;;;;5.80;0.15;;;9.90;99.90;;;;;;5013606;28;20030;-76
2023/01/06 09:21:20;;;;;;;5.65;0.47;;;9.90;99.90;;;;;;5014360;28;20072;-76
2023/01/06 09:23:45;;;;;;;5.28;0.10;;;9.90;99.90;;;;;;5013570;28;20108;-77
2023/01/06 09:26:12;;;;;;;3.47;0.00;;;9.90;99.90;;;;;;5012286;28;20547;-76
2023/01/06 09:28:38;;;;;;;10.55;1.38;;;9.90;99.90;;;;;;5012237;28;20393;-76
2023/01/06 09:31:03;;;;;;;5.15;0.30;;;9.90;99.90;;;;;;5013345;28;20033;-76
2023/01/06 09:33:29;;;;;;;6.65;0.20;;;10.00;99.90;;;;;;5013478;28;20029;-76
2023/01/06 09:35:54;;;;;;;5.13;0.47;;;9.90;99.90;;;;;;5012222;28;20030;-76
2023/01/06 09:38:20;;;;;;;8.18;0.30;;;9.90;99.90;;;;;;5012085;28;20030;-77
2023/01/06 09:40:55;;;;;;;5.30;0.28;;;10.00;99.90;;;;;;5012045;28;20026;-76
2023/01/06 09:43:39;;;;;;;13.40;0.57;;;10.10;99.90;;;;;;5016928;28;20428;-76
2023/01/06 09:46:07;;;;;;;3.83;0.17;;;10.10;99.90;;;;;;5016076;28;20373;-76
2023/01/06 09:48:53;;;;;;;10.00;0.40;;;10.10;99.90;;;;;;5017297;28;20029;-76
2023/01/06 09:51:22;;;;;;;4.45;0.70;;;10.30;99.90;;;;;;5015791;28;20096;-77
2023/01/06 09:53:51;;;;;;;;;;;10.20;99.90;;;;;;5016330;28;20469;-76
2023/01/06 09:56:21;;;;;;;11.45;0.70;;;10.20;99.90;;;;;;5015830;28;19993;-76
2023/01/06 09:59:14;;;;;;;5.03;0.30;;;10.20;99.90;;;;;;5017085;28;20033;-76
2023/01/06 10:01:44;;;;;;;3.58;0.50;;;10.20;99.90;;;;;;5017346;28;20022;-76
2023/01/06 10:04:16;;;;;;;5.22;0.20;;;10.30;99.90;;;;;;5017099;28;20410;-76
2023/01/06 10:07:10;;;;;;;2.75;0.00;;;10.30;99.90;;;;;;5015726;28;20033;-76
2023/01/06 10:09:47;;;;;;;3.20;0.00;;;10.40;99.90;;;;;;5016668;28;20141;-76
2023/01/06 10:12:38;;;;;;;5.28;0.43;;;10.40;99.90;;;;;;5015656;28;20026;-76
2023/01/06 10:15:22;;;;;;;6.80;0.00;;;10.40;99.90;;;;;;5017594;28;20113;-75
2023/01/06 10:17:54;;;;;;;5.78;0.90;;;10.40;99.90;;;;;;5017307;28;20022;-76
2023/01/06 10:20:38;;;;;;;8.70;0.47;;;10.50;99.90;;;;;;5015395;28;20064;-76
2023/01/06 10:23:12;;;;;;;8.07;0.20;;;10.50;99.90;;;;;;5016583;28;20026;-76
2023/01/06 10:25:54;;;;;;;6.00;0.00;;;10.60;99.90;;;;;;5016609;28;20026;-76
2023/01/06 10:28:52;;;;;;;5.72;0.00;;;10.60;99.90;;;;;;5015211;28;20024;-76
2023/01/06 10:31:23;;;;;;;3.75;0.13;;;10.60;99.90;;;;;;5012843;28;20062;-75
2023/01/06 10:33:51;;;;;;;2.55;0.00;;;10.70;99.90;;;;;;5016755;28;20022;-76
2023/01/06 10:36:25;;;;;;;3.35;0.00;;;10.80;99.90;;;;;;5016056;28;20508;-77
2023/01/06 10:38:53;;;;;;;3.70;0.05;;;10.80;99.90;;;;;;5016667;28;20018;-76
2023/01/06 10:41:30;;;;;;;3.05;0.20;;;10.80;99.90;;;;;;5015481;28;20026;-77
2023/01/06 10:43:56;;;;;;;1.65;0.00;;;10.90;99.90;;;;;;5015428;28;20026;-77
2023/01/06 10:46:29;;;;;;;0.90;0.00;;;11.00;99.90;;;;;;5016620;28;20030;-77
2023/01/06 10:48:55;;;;;;;3.92;0.13;;;11.10;99.90;;;;;;5016609;28;20022;-77
2023/01/06 10:51:27;;;;;;;3.63;0.00;;;11.00;99.90;;;;;;5015259;28;20014;-77
2023/01/06 10:53:55;;;;;;;3.40;0.00;;;10.90;99.90;;;;;;5015480;28;20030;-77
2023/01/06 10:56:21;;;;;;;;;;;10.90;99.90;;;;;;5016814;28;20025;-77
2023/01/06 10:59:04;;;;;;;3.00;0.30;;;11.00;99.90;;;;;;5015038;28;20265;-77
2023/01/06 11:01:30;;;;;;;4.50;0.20;;;11.00;99.90;;;;;;5015122;28;20120;-77
2023/01/06 11:04:12;;;;;;;3.83;0.10;;;11.10;99.90;;;;;;5015297;28;20049;-77
2023/01/06 11:07:02;;;;;;;3.38;0.00;;;11.00;99.90;;;;;;5016355;28;20036;-77
2023/01/06 11:09:35;;;;;;;5.38;0.57;;;10.90;99.90;;;;;;5015153;28;20096;-77
2023/01/06 11:12:12;;;;;;;3.97;0.22;;;10.90;99.90;;;;;;5016621;28;20534;-77
2023/01/06 11:14:39;;;;;;;2.10;0.00;;;10.90;99.90;;;;;;5017185;28;20018;-77
2023/01/06 11:17:13;;;;;;;0.90;0.00;;;10.90;99.90;;;;;;5015794;28;20040;-78
2023/01/06 11:19:41;;;;;;;1.65;0.00;;;10.90;99.90;;;;;;5016338;28;20520;-77
2023/01/06 11:22:26;;;;;;;13.17;0.23;;;11.00;99.90;;;;;;5014859;28;20030;-75
2023/01/06 11:24:53;;;;;;;5.25;0.63;;;11.00;99.90;;;;;;5015585;28;20612;-77
2023/01/06 11:27:18;;;;;;;2.22;0.00;;;11.10;99.90;;;;;;5014589;28;20049;-76
2023/01/06 11:29:44;;;;;;;1.85;0.00;;;11.10;99.90;;;;;;5015788;28;20480;-75
2023/01/06 11:32:18;;;;;;;4.53;0.20;;;11.10;99.90;;;;;;5014878;28;20439;-78
2023/01/06 11:34:56;;;;;;;3.83;0.00;;;11.10;99.90;;;;;;5016510;28;20033;-77
2023/01/06 11:37:40;;;;;;;4.47;0.30;;;11.20;99.90;;;;;;5014944;28;20113;-77
2023/01/06 11:40:27;;;;;;;6.85;0.65;;;11.30;99.90;;;;;;5015360;28;20507;-77
2023/01/06 11:42:57;;;;;;;7.78;0.38;;;11.30;99.90;;;;;;5014420;28;20144;-77
2023/01/06 11:45:35;;;;;;;7.07;0.10;;;11.30;99.90;;;;;;5014076;28;20030;-76
2023/01/06 11:48:12;;;;;;;5.57;0.00;;;11.30;99.90;;;;;;5013949;28;20022;-76
2023/01/06 11:50:37;;;;;;;6.43;0.00;;;11.20;99.90;;;;;;5015109;28;20057;-77
2023/01/06 11:53:15;;;;;;;6.53;0.00;;;11.20;99.90;;;;;;5013787;28;20437;-75
2023/01/06 11:55:41;;;;;;;3.20;0.20;;;11.10;99.90;;;;;;5014953;28;20492;-75
2023/01/06 11:58:20;;;;;;;3.60;0.63;;;11.20;99.90;;;;;;5014836;28;20018;-75
2023/01/06 12:01:14;;;;;;;1.90;0.15;;;11.20;99.90;;;;;;5014853;28;20436;-76
2023/01/06 12:03:43;;;;;;;3.22;0.65;;;11.20;99.90;;;;;;5013173;28;20038;-76
2023/01/06 12:06:12;;;;;;;4.72;0.00;;;11.20;99.90;;;;;;5012792;28;20034;-75
2023/01/06 12:08:43;;;;;;;16.27;0.47;;;11.30;99.90;;;;;;5015127;28;20041;-78
2023/01/06 12:11:28;;;;;;;1.65;0.10;;;11.30;99.90;;;;;;5014728;28;20470;-77
2023/01/06 12:13:54;;;;;;;2.60;0.03;;;11.40;99.90;;;;;;5015037;28;20022;-77
2023/01/06 12:16:33;;;;;;;1.08;0.00;;;11.70;99.90;;;;;;5013534;28;20028;-77
2023/01/06 12:18:59;;;;;;;6.32;0.35;;;11.30;99.90;;;;;;5013344;28;20022;-77
2023/01/06 12:21:31;;;;;;;2.58;0.00;;;11.30;99.90;;;;;;5014862;28;20500;-78
2023/01/06 12:24:04;;;;;;;1.10;0.00;;;11.40;99.90;;;;;;5013271;28;20388;-75
2023/01/06 12:26:33;;;;;;;2.70;0.05;;;11.50;99.90;;;;;;5014981;28;20030;-77
2023/01/06 12:29:00;;;;;;;3.53;0.00;;;11.70;99.90;;;;;;5014996;28;20549;-75
2023/01/06 12:31:29;;;;;;;5.63;0.40;;;11.80;99.90;;;;;;5014500;28;20057;-78
2023/01/06 12:34:15;;;;;;;;;;;11.80;99.90;;;;;;5014734;28;20118;-77
2023/01/06 12:36:49;;;;;;;0.88;0.00;;;11.80;99.90;;;;;;5013370;28;20000;-75
2023/01/06 12:39:22;;;;;;;4.13;0.25;;;11.80;99.90;;;;;;5014232;28;20079;-75
2023/01/06 12:42:20;;;;;;;2.45;0.00;;;11.80;99.90;;;;;;5013127;28;20370;-77
2023/01/06 12:45:00;;;;;;;5.55;0.00;;;11.80;99.90;;;;;;4974002;28;20507;-77
2023/01/06 12:47:50;;;;;;;5.72;0.00;;;11.70;99.90;;;;;;5015195;28;20029;-76
2023/01/06 12:50:27;;;;;;;3.80;0.00;;;11.60;99.90;;;;;;5015719;28;20472;-75
2023/01/06 12:53:05;;;;;;;3.05;0.00;;;11.60;99.90;;;;;;5014634;28;20426;-77
2023/01/06 12:55:59;;;;;;;0.77;0.20;;;11.60;99.90;;;;;;5015660;28;20068;-77
2023/01/06 12:58:53;;;;;;;2.33;0.05;;;11.70;99.90;;;;;;5012873;28;20040;-77
2023/01/06 13:01:27;;;;;;;6.10;0.43;;;11.90;99.90;;;;;;5014056;28;20033;-75
2023/01/06 13:04:20;;;;;;;3.60;0.30;;;12.20;99.90;;;;;;5012748;28;20033;-75
2023/01/06 13:07:10;;;;;;;2.17;0.20;;;12.40;99.90;;;;;;5014216;28;20033;-78
2023/01/06 13:10:00;;;;;;;1.58;0.08;;;12.50;99.90;;;;;;5014494;28;20110;-75
2023/01/06 13:12:46;;;;;;;3.92;0.00;;;12.50;99.90;;;;;;5015073;28;20033;-77
2023/01/06 13:15:25;;;;;;;3.95;0.10;;;12.40;99.90;;;;;;5012638;28;20030;-77
2023/01/06 13:17:59;;;;;;;;;;;12.50;99.90;;;;;;5014408;28;20030;-77
2023/01/06 13:20:30;;;;;;;2.63;0.35;;;12.60;99.90;;;;;;5012468;28;20348;-78
2023/01/06 13:23:18;;;;;;;3.10;0.20;;;12.80;99.90;;;;;;5012379;28;20415;-75
2023/01/06 13:25:58;;;;;;;2.60;0.00;;;12.80;99.90;;;;;;5013741;28;20378;-77